Time;durP1;ratioP1;P1;durP2;ratioP2;P2;SDS_P1;SDS_P2;PMS_P1;PMS_P2;Temp;Humidity;BMP_temperature;BMP_pressure;BME280_temperature;BME280_humidity;BME280_pressure;Samples;Min_cycle;Max_cycle;Signal;HPM_P1;HPM_P2
2022/10/11 00:02:12;;;;;;;14.50;3.87;;;17.00;99.90;;;;;;5012977;28;20046;-67
2022/10/11 00:04:37;;;;;;;12.63;3.40;;;17.00;99.90;;;;;;5015707;28;20417;-68
2022/10/11 00:07:03;;;;;;;10.20;3.42;;;16.90;99.90;;;;;;5015710;28;20030;-68
2022/10/11 00:09:29;;;;;;;9.23;3.53;;;16.90;99.90;;;;;;5015506;28;20475;-67
2022/10/11 00:11:55;;;;;;;10.77;3.38;;;16.90;99.90;;;;;;5015555;28;20022;-67
2022/10/11 00:14:22;;;;;;;9.00;3.67;;;16.90;99.90;;;;;;5015465;28;20029;-67
2022/10/11 00:16:48;;;;;;;15.50;4.45;;;16.80;99.90;;;;;;5015334;28;20026;-67
2022/10/11 00:19:13;;;;;;;13.93;4.00;;;16.80;99.90;;;;;;5015665;28;20041;-67
2022/10/11 00:21:39;;;;;;;10.53;3.63;;;16.70;99.90;;;;;;5015521;28;20296;-67
2022/10/11 00:24:05;;;;;;;9.40;3.60;;;16.70;99.90;;;;;;5015472;28;20036;-67
2022/10/11 00:26:31;;;;;;;10.25;3.67;;;16.80;99.90;;;;;;5015519;28;20269;-67
2022/10/11 00:28:56;;;;;;;10.60;3.80;;;16.80;99.90;;;;;;5014052;28;20088;-67
2022/10/11 00:31:22;;;;;;;14.20;3.53;;;16.80;99.90;;;;;;5015473;28;20057;-67
2022/10/11 00:33:47;;;;;;;13.10;3.90;;;16.70;99.90;;;;;;5015355;28;20101;-67
2022/10/11 00:36:15;;;;;;;13.10;4.17;;;16.70;99.90;;;;;;5015525;28;20069;-67
2022/10/11 00:38:42;;;;;;;12.82;3.75;;;16.70;99.90;;;;;;5014016;28;20326;-67
2022/10/11 00:41:08;;;;;;;15.27;4.30;;;16.60;99.90;;;;;;5015625;28;20030;-67
2022/10/11 00:43:33;;;;;;;12.32;3.88;;;16.60;99.90;;;;;;5015462;28;20037;-67
2022/10/11 00:46:03;;;;;;;9.87;4.20;;;16.60;99.90;;;;;;5013605;28;20084;-67
2022/10/11 00:48:38;;;;;;;10.70;4.35;;;16.60;99.90;;;;;;5015043;28;20257;-67
2022/10/11 00:51:31;;;;;;;10.75;4.20;;;16.50;99.90;;;;;;5014811;28;20022;-67
2022/10/11 00:54:00;;;;;;;14.82;4.07;;;16.50;99.90;;;;;;5011688;28;20497;-67
2022/10/11 00:56:30;;;;;;;13.18;4.88;;;16.50;99.90;;;;;;5014829;28;20033;-66
2022/10/11 00:58:56;;;;;;;13.35;4.50;;;16.40;99.90;;;;;;5013395;28;20041;-66
2022/10/11 01:01:22;;;;;;;;;;;16.50;99.90;;;;;;5013499;28;20028;-66
2022/10/11 01:03:47;;;;;;;9.73;3.33;;;16.50;99.90;;;;;;5014882;28;20418;-66
2022/10/11 01:06:13;;;;;;;18.57;4.47;;;16.50;99.90;;;;;;5014626;28;20092;-66
2022/10/11 01:08:38;;;;;;;11.10;4.75;;;16.50;99.90;;;;;;5014553;28;20557;-66
2022/10/11 01:11:04;;;;;;;7.82;3.88;;;16.40;99.90;;;;;;5014649;28;20478;-66
2022/10/11 01:13:50;;;;;;;10.82;4.03;;;16.40;99.90;;;;;;5013989;28;20025;-66
2022/10/11 01:16:32;;;;;;;11.15;4.53;;;16.50;99.90;;;;;;5014149;28;20101;-66
2022/10/11 01:19:25;;;;;;;12.60;4.30;;;16.50;99.90;;;;;;5014314;28;20033;-66
2022/10/11 01:22:39;;;;;;;12.52;4.55;;;16.40;99.90;;;;;;5013103;28;20018;-67
2022/10/11 01:25:27;;;;;;;14.43;4.55;;;16.30;99.90;;;;;;5010451;28;20427;-66
2022/10/11 01:28:07;;;;;;;12.15;4.22;;;16.30;99.90;;;;;;5014499;28;20491;-66
2022/10/11 01:30:35;;;;;;;9.77;3.85;;;16.40;99.90;;;;;;5013967;28;20030;-66
2022/10/11 01:33:12;;;;;;;17.50;4.43;;;16.40;99.90;;;;;;5014367;28;20486;-66
2022/10/11 01:36:05;;;;;;;9.65;4.13;;;16.40;99.90;;;;;;5013653;28;20069;-66
2022/10/11 01:38:43;;;;;;;10.65;4.30;;;16.40;99.90;;;;;;5014292;28;20124;-66
2022/10/11 01:41:20;;;;;;;12.98;4.53;;;16.40;99.90;;;;;;5014326;28;20104;-67
2022/10/11 01:43:48;;;;;;;14.10;4.15;;;16.40;99.90;;;;;;5012634;28;20034;-67
2022/10/11 01:46:15;;;;;;;13.30;4.72;;;16.30;99.90;;;;;;5013759;28;20021;-66
2022/10/11 01:48:52;;;;;;;13.80;4.40;;;16.20;99.90;;;;;;5013757;28;20029;-66
2022/10/11 01:51:22;;;;;;;11.68;4.57;;;16.20;99.90;;;;;;5012812;28;20056;-67
2022/10/11 01:53:58;;;;;;;10.63;4.63;;;16.20;99.90;;;;;;5014009;28;20045;-66
2022/10/11 01:56:53;;;;;;;11.85;5.28;;;16.20;99.90;;;;;;5013886;28;20021;-67
2022/10/11 01:59:27;;;;;;;13.63;5.43;;;16.30;99.90;;;;;;5013771;28;20486;-67
2022/10/11 02:02:11;;;;;;;14.05;5.32;;;16.30;99.90;;;;;;5012135;28;20030;-67
2022/10/11 02:04:47;;;;;;;13.05;5.25;;;16.30;99.90;;;;;;5013736;28;20052;-67
2022/10/11 02:07:35;;;;;;;13.07;5.28;;;16.30;99.90;;;;;;5014172;28;20534;-66
2022/10/11 02:10:09;;;;;;;13.48;5.03;;;16.30;99.90;;;;;;5012121;28;20026;-67
2022/10/11 02:12:56;;;;;;;12.90;5.00;;;16.30;99.90;;;;;;5013939;28;20029;-66
2022/10/11 02:15:26;;;;;;;13.82;5.18;;;16.30;99.90;;;;;;5013454;28;20022;-67
2022/10/11 02:17:55;;;;;;;16.70;5.45;;;16.30;99.90;;;;;;5013539;28;20049;-67
2022/10/11 02:20:25;;;;;;;15.30;6.18;;;16.30;99.90;;;;;;5013300;28;20479;-67
2022/10/11 02:23:00;;;;;;;13.00;5.53;;;16.30;99.90;;;;;;5013600;28;20026;-67
2022/10/11 02:25:29;;;;;;;12.27;5.25;;;16.30;99.90;;;;;;5012685;28;20032;-67
2022/10/11 02:27:59;;;;;;;14.50;4.97;;;16.20;99.90;;;;;;5013243;28;20033;-67
2022/10/11 02:30:25;;;;;;;14.35;5.13;;;16.20;99.90;;;;;;5012868;28;20066;-67
2022/10/11 02:32:53;;;;;;;18.67;5.65;;;16.20;99.90;;;;;;5013195;28;20108;-67
2022/10/11 02:35:23;;;;;;;21.13;6.35;;;16.20;99.90;;;;;;5013134;28;20037;-67
2022/10/11 02:38:04;;;;;;;16.88;6.25;;;16.20;99.90;;;;;;5013188;28;20049;-67
2022/10/11 02:40:36;;;;;;;15.38;5.68;;;16.10;99.90;;;;;;5013105;28;20027;-67
2022/10/11 02:43:16;;;;;;;12.93;6.05;;;16.10;99.90;;;;;;5013239;28;20084;-67
2022/10/11 02:45:58;;;;;;;17.90;6.50;;;16.10;99.90;;;;;;5013217;28;20386;-67
2022/10/11 02:48:27;;;;;;;13.43;6.55;;;16.00;99.90;;;;;;5013265;28;20032;-67
2022/10/11 02:50:54;;;;;;;17.52;6.72;;;16.00;99.90;;;;;;5012894;28;20026;-67
2022/10/11 02:53:21;;;;;;;17.35;6.43;;;15.90;99.90;;;;;;5012573;28;20022;-67
2022/10/11 02:55:47;;;;;;;;;;;15.90;99.90;;;;;;5013717;28;20018;-66
2022/10/11 02:58:12;;;;;;;17.55;6.47;;;15.90;99.90;;;;;;5011785;28;20011;-67
2022/10/11 03:00:38;;;;;;;13.87;6.97;;;15.90;99.90;;;;;;5011951;28;20138;-66
2022/10/11 03:03:03;;;;;;;16.90;6.40;;;15.80;99.90;;;;;;5013250;28;20487;-67
2022/10/11 03:05:29;;;;;;;13.93;6.60;;;15.70;99.90;;;;;;5013129;28;20065;-67
2022/10/11 03:07:55;;;;;;;18.80;6.90;;;15.80;99.90;;;;;;5013227;28;20032;-67
2022/10/11 03:10:20;;;;;;;13.73;7.05;;;15.80;99.90;;;;;;5012894;28;20034;-67
2022/10/11 03:12:46;;;;;;;16.83;6.70;;;15.70;99.90;;;;;;5013025;28;20534;-67
2022/10/11 03:15:11;;;;;;;20.85;7.25;;;15.60;99.90;;;;;;5013309;28;20018;-67
2022/10/11 03:17:37;;;;;;;16.17;6.93;;;15.70;99.90;;;;;;5012527;28;20037;-67
2022/10/11 03:20:05;;;;;;;16.93;7.20;;;15.60;99.90;;;;;;5012844;28;20026;-66
2022/10/11 03:22:30;;;;;;;17.17;8.75;;;15.50;99.90;;;;;;5013017;28;20029;-68
2022/10/11 03:24:56;;;;;;;21.10;9.83;;;15.50;99.90;;;;;;5012726;28;20018;-67
2022/10/11 03:27:21;;;;;;;21.17;10.33;;;15.40;99.90;;;;;;5012967;28;20052;-67
2022/10/11 03:29:46;;;;;;;21.97;12.37;;;15.40;99.90;;;;;;5011808;28;20038;-67
2022/10/11 03:32:12;;;;;;;21.53;11.23;;;15.50;99.90;;;;;;5013068;28;20415;-67
2022/10/11 03:34:37;;;;;;;19.33;10.93;;;15.40;99.90;;;;;;5013285;28;20475;-67
2022/10/11 03:37:03;;;;;;;22.23;13.17;;;15.40;99.90;;;;;;5016784;28;20033;-69
2022/10/11 03:39:28;;;;;;;19.63;12.70;;;15.30;99.90;;;;;;5016758;28;20088;-68
2022/10/11 03:41:54;;;;;;;23.80;14.03;;;15.20;99.90;;;;;;5017201;28;20038;-67
2022/10/11 03:44:19;;;;;;;19.77;13.80;;;15.20;99.90;;;;;;5016183;28;20104;-67
2022/10/11 03:46:45;;;;;;;24.83;13.00;;;15.10;99.90;;;;;;5016450;28;20029;-67
2022/10/11 03:49:10;;;;;;;21.77;13.80;;;15.10;99.90;;;;;;5016354;28;20026;-68
2022/10/11 03:51:36;;;;;;;25.70;15.63;;;15.00;99.90;;;;;;5016119;28;20026;-68
2022/10/11 03:54:01;;;;;;;29.30;14.23;;;14.90;99.90;;;;;;5016083;28;20037;-68
2022/10/11 03:56:27;;;;;;;22.17;13.47;;;14.80;99.90;;;;;;5016364;28;20081;-68
2022/10/11 03:58:53;;;;;;;25.48;14.95;;;14.80;99.90;;;;;;5015980;28;20037;-68
2022/10/11 04:01:18;;;;;;;29.57;15.03;;;14.80;99.90;;;;;;5015868;28;20113;-68
2022/10/11 04:03:44;;;;;;;25.52;14.90;;;14.80;99.90;;;;;;5015808;28;20075;-68
2022/10/11 04:06:10;;;;;;;31.27;16.03;;;14.80;99.90;;;;;;5015714;28;20030;-68
2022/10/11 04:08:35;;;;;;;25.80;15.80;;;14.70;99.90;;;;;;5015520;28;20030;-68
2022/10/11 04:11:01;;;;;;;27.40;15.80;;;14.80;99.90;;;;;;5015445;28;20506;-67
2022/10/11 04:13:26;;;;;;;27.20;15.43;;;14.70;99.90;;;;;;5015581;28;20072;-66
2022/10/11 04:15:52;;;;;;;24.73;15.93;;;14.60;99.90;;;;;;5015224;28;20022;-67
2022/10/11 04:18:18;;;;;;;32.43;17.50;;;14.60;99.90;;;;;;5015503;28;20030;-67
2022/10/11 04:20:43;;;;;;;29.98;17.02;;;14.60;99.90;;;;;;5015184;28;20391;-67
2022/10/11 04:23:09;;;;;;;30.13;18.07;;;14.60;99.90;;;;;;5015143;28;20026;-67
2022/10/11 04:25:37;;;;;;;29.43;19.27;;;14.60;99.90;;;;;;5015754;28;20348;-67
2022/10/11 04:28:03;;;;;;;30.05;17.80;;;14.60;99.90;;;;;;5015036;28;20265;-67
2022/10/11 04:30:29;;;;;;;28.13;17.90;;;14.50;99.90;;;;;;5014883;28;20037;-67
2022/10/11 04:32:54;;;;;;;31.87;18.07;;;14.50;99.90;;;;;;5014855;28;20022;-66
2022/10/11 04:35:20;;;;;;;32.07;19.07;;;14.40;99.90;;;;;;5015028;28;20014;-67
2022/10/11 04:37:45;;;;;;;28.40;18.33;;;14.30;99.90;;;;;;5015399;28;20391;-67
2022/10/11 04:40:11;;;;;;;35.80;19.97;;;14.30;99.90;;;;;;5014805;28;20057;-67
2022/10/11 04:42:37;;;;;;;35.33;19.75;;;14.30;99.90;;;;;;5015163;28;20030;-66
2022/10/11 04:45:02;;;;;;;31.23;19.00;;;14.30;99.90;;;;;;5014427;28;20029;-65
2022/10/11 04:47:28;;;;;;;35.33;19.65;;;14.20;99.90;;;;;;5014335;28;20034;-63
2022/10/11 04:49:53;;;;;;;32.10;20.03;;;14.20;99.90;;;;;;5015052;28;20041;-60
2022/10/11 04:52:19;;;;;;;36.90;20.50;;;14.20;99.90;;;;;;5015356;28;20032;-63
2022/10/11 04:54:44;;;;;;;32.00;19.80;;;14.20;99.90;;;;;;5014961;28;20399;-64
2022/10/11 04:57:10;;;;;;;32.43;19.40;;;14.20;99.90;;;;;;5014828;28;20050;-64
2022/10/11 04:59:35;;;;;;;36.97;20.93;;;14.20;99.90;;;;;;5015065;28;20077;-64
2022/10/11 05:02:01;;;;;;;33.87;21.57;;;14.10;99.90;;;;;;5014763;28;20026;-63
2022/10/11 05:04:27;;;;;;;37.70;20.60;;;14.10;99.90;;;;;;5014695;28;20120;-64
2022/10/11 05:06:52;;;;;;;32.70;20.67;;;14.10;99.90;;;;;;5014512;28;20050;-64
2022/10/11 05:09:18;;;;;;;32.27;19.47;;;14.00;99.90;;;;;;5014474;28;20037;-64
2022/10/11 05:11:43;;;;;;;30.38;20.52;;;14.00;99.90;;;;;;5015018;28;20140;-64
2022/10/11 05:14:09;;;;;;;40.17;21.07;;;14.00;99.90;;;;;;5014527;28;20022;-64
2022/10/11 05:16:34;;;;;;;30.93;19.33;;;14.00;99.90;;;;;;5014367;28;20037;-64
2022/10/11 05:19:00;;;;;;;29.47;18.13;;;14.10;99.90;;;;;;5014508;28;20022;-64
2022/10/11 05:21:28;;;;;;;29.57;18.13;;;14.20;99.90;;;;;;5014591;28;20024;-63
2022/10/11 05:23:55;;;;;;;28.58;16.83;;;14.20;99.90;;;;;;5014775;28;20014;-63
2022/10/11 05:26:22;;;;;;;27.27;16.00;;;14.30;99.90;;;;;;5014359;28;20379;-63
2022/10/11 05:28:47;;;;;;;30.35;15.57;;;14.30;99.90;;;;;;5013868;28;20458;-63
2022/10/11 05:31:14;;;;;;;23.55;13.45;;;14.30;99.90;;;;;;5014328;28;20033;-63
2022/10/11 05:33:39;;;;;;;23.92;14.60;;;14.30;99.90;;;;;;5013827;28;20030;-63
2022/10/11 05:36:06;;;;;;;22.83;14.27;;;14.30;99.90;;;;;;5012630;28;20018;-63
2022/10/11 05:38:32;;;;;;;23.02;13.15;;;14.20;99.90;;;;;;5013909;28;20068;-63
2022/10/11 05:41:01;;;;;;;21.25;12.15;;;14.10;99.90;;;;;;5014072;28;20076;-64
2022/10/11 05:43:27;;;;;;;22.00;12.38;;;14.10;99.90;;;;;;5012449;28;20065;-63
2022/10/11 05:45:53;;;;;;;19.85;12.60;;;14.10;99.90;;;;;;5013885;28;20057;-63
2022/10/11 05:48:18;;;;;;;21.40;11.00;;;14.20;99.90;;;;;;5013845;28;20173;-63
2022/10/11 05:50:44;;;;;;;22.07;11.87;;;14.20;99.90;;;;;;5013717;28;20368;-63
2022/10/11 05:53:09;;;;;;;21.77;11.70;;;14.20;99.90;;;;;;5013993;28;20025;-68
2022/10/11 05:55:40;;;;;;;19.57;11.00;;;14.10;99.90;;;;;;5012865;28;20108;-69
2022/10/11 05:58:06;;;;;;;16.92;9.90;;;14.10;99.90;;;;;;5013276;28;20510;-65
2022/10/11 06:00:36;;;;;;;15.95;8.77;;;14.10;99.90;;;;;;5014534;28;20386;-66
2022/10/11 06:03:02;;;;;;;15.73;8.60;;;14.10;99.90;;;;;;5015799;28;20022;-66
2022/10/11 06:05:28;;;;;;;14.13;8.07;;;14.10;99.90;;;;;;5014861;28;20082;-66
2022/10/11 06:07:53;;;;;;;18.23;9.73;;;14.10;99.90;;;;;;5014563;28;20032;-66
2022/10/11 06:10:19;;;;;;;15.83;7.97;;;14.00;99.90;;;;;;5013989;28;20115;-66
2022/10/11 06:12:44;;;;;;;15.17;8.27;;;14.00;99.90;;;;;;5013754;28;20026;-66
2022/10/11 06:15:10;;;;;;;21.03;9.30;;;14.10;99.90;;;;;;5013443;28;20022;-65
2022/10/11 06:17:36;;;;;;;13.25;6.25;;;14.20;99.90;;;;;;5012818;28;20076;-65
2022/10/11 06:20:03;;;;;;;14.48;7.05;;;14.20;99.90;;;;;;5013552;28;20395;-65
2022/10/11 06:22:28;;;;;;;;;;;14.30;99.90;;;;;;5013811;28;20490;-65
2022/10/11 06:24:54;;;;;;;12.35;5.60;;;14.30;99.90;;;;;;5013695;28;19905;-65
2022/10/11 06:27:19;;;;;;;11.93;5.07;;;14.30;99.90;;;;;;5014047;28;20057;-65
2022/10/11 06:29:45;;;;;;;16.10;5.40;;;14.30;99.90;;;;;;5013252;28;20088;-65
2022/10/11 06:32:12;;;;;;;14.47;5.30;;;14.30;99.90;;;;;;5013453;28;20037;-66
2022/10/11 06:34:37;;;;;;;10.15;4.80;;;14.30;99.90;;;;;;5013284;28;20030;-66
2022/10/11 06:37:03;;;;;;;9.27;5.07;;;14.30;99.90;;;;;;5013516;28;20533;-65
2022/10/11 06:39:29;;;;;;;8.32;3.92;;;14.40;99.90;;;;;;5013087;28;20042;-66
2022/10/11 06:41:54;;;;;;;14.17;3.60;;;14.40;99.90;;;;;;5011782;28;20029;-65
2022/10/11 06:44:20;;;;;;;13.23;3.47;;;14.50;99.90;;;;;;5013206;28;20269;-66
2022/10/11 06:46:45;;;;;;;10.03;2.63;;;14.40;99.90;;;;;;5013115;28;20402;-65
2022/10/11 06:49:11;;;;;;;13.93;3.17;;;14.40;99.90;;;;;;5013066;28;20036;-66
2022/10/11 06:51:36;;;;;;;9.83;2.87;;;14.50;99.90;;;;;;5013088;28;20018;-66
2022/10/11 06:54:02;;;;;;;13.20;3.00;;;14.50;99.90;;;;;;5013574;28;20030;-65
2022/10/11 06:56:30;;;;;;;13.30;2.97;;;14.40;99.90;;;;;;5012518;28;20057;-65
2022/10/11 06:58:57;;;;;;;10.18;2.63;;;14.40;99.90;;;;;;5012802;28;20025;-65
2022/10/11 07:01:23;;;;;;;13.27;3.13;;;14.30;99.90;;;;;;5012785;28;20022;-65
2022/10/11 07:03:51;;;;;;;12.25;3.35;;;14.40;99.90;;;;;;5012948;28;20037;-65
2022/10/11 07:06:23;;;;;;;11.57;2.83;;;14.40;99.90;;;;;;5012774;28;20022;-65
2022/10/11 07:08:49;;;;;;;10.48;2.40;;;14.50;99.90;;;;;;5013496;28;20057;-65
2022/10/11 07:11:20;;;;;;;15.00;2.95;;;14.40;99.90;;;;;;5015747;28;20069;-65
2022/10/11 07:13:51;;;;;;;17.30;3.13;;;14.40;99.90;;;;;;5017048;28;20056;-66
2022/10/11 07:16:18;;;;;;;17.20;3.10;;;14.40;99.90;;;;;;5016401;28;20479;-65
2022/10/11 07:18:44;;;;;;;10.88;2.30;;;14.50;99.90;;;;;;5015053;28;20037;-66
2022/10/11 07:21:12;;;;;;;15.27;2.17;;;14.60;99.90;;;;;;5016631;28;20026;-65
2022/10/11 07:23:38;;;;;;;14.82;3.10;;;14.70;99.90;;;;;;5016401;28;20070;-65
2022/10/11 07:26:04;;;;;;;11.00;1.90;;;14.80;99.90;;;;;;5016457;28;20462;-66
2022/10/11 07:28:30;;;;;;;17.80;3.25;;;14.80;99.90;;;;;;5014874;28;20030;-65
2022/10/11 07:30:56;;;;;;;17.00;2.80;;;14.80;99.90;;;;;;5016195;28;20467;-65
2022/10/11 07:33:23;;;;;;;17.05;2.65;;;14.90;99.90;;;;;;5016314;28;20054;-65
2022/10/11 07:35:49;;;;;;;14.40;2.17;;;14.90;99.90;;;;;;5016557;28;20501;-65
2022/10/11 07:38:15;;;;;;;6.93;2.10;;;15.10;99.90;;;;;;5014963;28;20030;-65
2022/10/11 07:40:43;;;;;;;10.77;2.35;;;15.20;99.90;;;;;;5015757;28;20435;-66
2022/10/11 07:43:09;;;;;;;18.20;3.05;;;15.10;99.90;;;;;;5016284;28;20025;-65
2022/10/11 07:45:39;;;;;;;5.95;1.92;;;15.10;99.90;;;;;;5014553;28;20029;-65
2022/10/11 07:48:05;;;;;;;11.93;2.70;;;15.10;99.90;;;;;;5016718;28;20026;-65
2022/10/11 07:50:31;;;;;;;10.73;2.25;;;15.30;99.90;;;;;;5016042;28;20121;-66
2022/10/11 07:52:57;;;;;;;14.35;2.80;;;15.30;99.90;;;;;;5016005;28;20033;-66
2022/10/11 07:55:22;;;;;;;15.73;2.78;;;15.50;99.90;;;;;;5015008;28;20093;-66
2022/10/11 07:57:48;;;;;;;12.13;2.30;;;15.60;99.90;;;;;;5016354;28;20026;-66
2022/10/11 08:00:14;;;;;;;7.37;1.80;;;15.40;99.90;;;;;;5015867;28;20033;-66
2022/10/11 08:02:39;;;;;;;9.07;2.13;;;15.30;99.90;;;;;;5015885;28;20553;-66
2022/10/11 08:05:05;;;;;;;11.93;2.43;;;15.10;99.90;;;;;;5016066;28;20037;-66
2022/10/11 08:07:30;;;;;;;9.77;2.00;;;15.20;99.90;;;;;;5015401;28;20030;-66
2022/10/11 08:09:56;;;;;;;13.37;2.27;;;15.10;99.90;;;;;;5014911;28;20034;-66
2022/10/11 08:12:21;;;;;;;10.23;2.53;;;15.00;99.90;;;;;;5015982;28;20618;-66
2022/10/11 08:14:47;;;;;;;17.33;2.80;;;14.80;99.90;;;;;;5015775;28;20029;-66
2022/10/11 08:17:13;;;;;;;19.50;3.57;;;14.80;99.90;;;;;;5018109;28;20026;-66
2022/10/11 08:19:39;;;;;;;20.50;2.83;;;14.80;99.90;;;;;;5019946;28;20544;-66
2022/10/11 08:22:04;;;;;;;13.38;2.40;;;14.90;99.90;;;;;;5016642;28;20030;-66
2022/10/11 08:24:30;;;;;;;10.23;2.07;;;14.70;99.90;;;;;;5016018;28;20482;-66
2022/10/11 08:26:56;;;;;;;14.35;2.78;;;14.50;99.90;;;;;;5018593;28;20288;-65
2022/10/11 08:29:21;;;;;;;14.35;3.20;;;14.50;99.90;;;;;;5014893;28;20113;-65
2022/10/11 08:31:47;;;;;;;10.18;2.40;;;14.60;99.90;;;;;;5017709;28;20088;-65
2022/10/11 08:34:13;;;;;;;9.20;2.00;;;14.70;99.90;;;;;;5017150;28;20032;-65
2022/10/11 08:36:38;;;;;;;9.75;2.38;;;14.90;99.90;;;;;;5015254;28;20021;-65
2022/10/11 08:39:07;;;;;;;14.50;2.47;;;15.10;99.90;;;;;;5015074;28;20451;-65
2022/10/11 08:41:38;;;;;;;10.50;2.65;;;15.00;99.90;;;;;;5014829;28;20680;-65
2022/10/11 08:44:15;;;;;;;11.95;2.33;;;14.90;99.90;;;;;;5016001;28;20026;-66
2022/10/11 08:46:44;;;;;;;8.70;2.05;;;14.90;99.90;;;;;;5017498;28;20018;-65
2022/10/11 08:49:12;;;;;;;12.20;2.55;;;14.90;99.90;;;;;;5016283;28;20030;-65
2022/10/11 08:51:45;;;;;;;9.52;2.88;;;15.00;99.90;;;;;;5015871;28;20121;-66
2022/10/11 08:54:30;;;;;;;11.48;2.80;;;15.10;99.90;;;;;;5014428;28;20045;-65
2022/10/11 08:56:56;;;;;;;12.52;2.60;;;15.00;99.90;;;;;;5013968;28;20022;-65
2022/10/11 08:59:39;;;;;;;10.40;2.20;;;15.00;99.90;;;;;;5015079;28;20502;-65
2022/10/11 09:02:33;;;;;;;12.75;2.65;;;15.00;99.90;;;;;;5013577;28;20686;-65
2022/10/11 09:04:59;;;;;;;13.02;2.95;;;14.90;99.90;;;;;;5015505;28;20034;-65
2022/10/11 09:07:54;;;;;;;6.78;2.15;;;14.80;99.90;;;;;;5013606;28;20026;-66
2022/10/11 09:10:22;;;;;;;12.45;2.63;;;14.90;99.90;;;;;;5014901;28;20149;-66
2022/10/11 09:13:17;;;;;;;12.52;2.60;;;15.00;99.90;;;;;;5014773;28;20177;-66
2022/10/11 09:16:19;;;;;;;8.63;2.35;;;15.10;99.90;;;;;;5016560;28;20026;-68
2022/10/11 09:19:11;;;;;;;10.85;2.50;;;15.40;99.90;;;;;;5015967;28;20064;-65
2022/10/11 09:21:48;;;;;;;13.35;3.00;;;15.40;99.90;;;;;;5016091;28;20486;-65
2022/10/11 09:24:16;;;;;;;12.60;2.65;;;15.30;99.90;;;;;;5016287;28;20029;-65
2022/10/11 09:26:41;;;;;;;19.48;3.53;;;15.20;99.90;;;;;;5016282;28;20033;-65
2022/10/11 09:29:14;;;;;;;11.30;3.00;;;15.10;99.90;;;;;;5013749;28;20503;-65
2022/10/11 09:31:44;;;;;;;15.65;2.78;;;15.10;99.90;;;;;;5042496;22;20116;-73
2022/10/11 09:34:12;;;;;;;8.65;2.30;;;15.20;99.90;;;;;;5034009;28;20021;-74
2022/10/11 09:36:56;;;;;;;12.63;2.88;;;15.00;99.90;;;;;;5033736;28;20438;-73
2022/10/11 09:39:35;;;;;;;12.40;3.03;;;15.10;99.90;;;;;;5034081;28;20077;-74
2022/10/11 09:42:04;;;;;;;15.00;3.75;;;15.20;99.90;;;;;;5049308;28;20099;-74
2022/10/11 09:44:51;;;;;;;9.38;3.33;;;15.40;99.90;;;;;;5034232;28;20021;-74
2022/10/11 09:47:23;;;;;;;12.57;3.08;;;15.30;99.90;;;;;;5049771;28;20022;-74
2022/10/11 09:50:14;;;;;;;8.35;2.88;;;15.50;99.90;;;;;;5049239;28;20025;-74
2022/10/11 09:52:54;;;;;;;11.85;2.83;;;15.80;99.90;;;;;;5032209;28;20109;-74
2022/10/11 09:55:38;;;;;;;10.35;2.90;;;16.10;99.90;;;;;;5032455;28;20025;-74
2022/10/11 09:58:22;;;;;;;12.40;2.92;;;16.40;99.90;;;;;;5029959;28;20018;-73
2022/10/11 10:01:00;;;;;;;9.70;2.63;;;16.40;99.90;;;;;;5013123;28;20032;-73
2022/10/11 10:03:32;;;;;;;20.30;3.45;;;16.50;99.90;;;;;;5031924;28;20036;-74
2022/10/11 10:06:12;;;;;;;11.43;3.05;;;16.70;99.90;;;;;;5033458;28;20034;-74
2022/10/11 10:08:38;;;;;;;13.65;3.40;;;16.90;99.90;;;;;;5049628;28;20119;-73
2022/10/11 10:11:08;;;;;;;16.25;3.38;;;17.00;99.90;;;;;;5034682;28;20229;-73
2022/10/11 10:13:50;;;;;;;13.75;3.05;;;18.50;99.90;;;;;;5057937;28;20025;-73
2022/10/11 10:16:29;;;;;;;8.70;3.10;;;19.70;99.90;;;;;;5051851;28;20492;-74
2022/10/11 10:18:55;;;;;;;12.57;3.38;;;19.50;99.90;;;;;;5033350;28;20389;-74
2022/10/11 10:21:28;;;;;;;14.43;3.08;;;19.10;99.90;;;;;;5048714;28;20036;-74
2022/10/11 10:23:56;;;;;;;10.98;3.28;;;18.60;99.90;;;;;;5034050;28;20051;-73
2022/10/11 10:26:24;;;;;;;15.20;3.40;;;18.40;99.90;;;;;;5048975;28;20025;-73
2022/10/11 10:28:57;;;;;;;12.75;4.15;;;18.70;99.90;;;;;;5033846;28;20064;-73
2022/10/11 10:31:31;;;;;;;9.25;2.78;;;19.00;99.90;;;;;;5048369;28;20482;-74
2022/10/11 10:33:56;;;;;;;9.85;3.30;;;19.70;99.90;;;;;;5014157;28;20056;-74
2022/10/11 10:36:31;;;;;;;10.00;2.95;;;19.90;99.90;;;;;;5012985;28;20026;-74
2022/10/11 10:39:04;;;;;;;12.55;2.97;;;19.90;99.90;;;;;;5014687;28;20026;-74
2022/10/11 10:41:29;;;;;;;12.55;3.38;;;20.40;99.90;;;;;;5012587;28;20455;-74
2022/10/11 10:43:57;;;;;;;12.65;3.35;;;21.40;99.70;;;;;;5014106;28;20079;-73
2022/10/11 10:46:28;;;;;;;11.13;3.30;;;22.20;98.30;;;;;;5017535;28;20026;-74
2022/10/11 10:49:17;;;;;;;13.35;3.63;;;22.70;97.40;;;;;;5020637;28;20026;-74
2022/10/11 10:52:10;;;;;;;9.40;3.35;;;22.80;96.60;;;;;;5028088;28;20029;-74
2022/10/11 10:54:52;;;;;;;10.63;3.25;;;22.20;97.20;;;;;;5023595;28;20501;-75
2022/10/11 10:57:44;;;;;;;12.82;3.35;;;21.60;97.60;;;;;;5020770;28;20058;-75
2022/10/11 11:00:19;;;;;;;13.55;2.90;;;21.00;98.00;;;;;;5019826;28;20061;-74
2022/10/11 11:02:48;;;;;;;8.93;3.35;;;20.10;99.50;;;;;;5035312;28;20061;-73
2022/10/11 11:05:47;;;;;;;9.45;2.88;;;19.80;99.90;;;;;;5034452;28;20030;-74
2022/10/11 11:08:48;;;;;;;10.18;2.83;;;19.30;99.90;;;;;;5018035;28;20018;-74
2022/10/11 11:11:42;;;;;;;10.68;3.10;;;19.00;99.90;;;;;;5016094;28;20121;-74
2022/10/11 11:14:32;;;;;;;11.02;3.42;;;19.00;99.90;;;;;;5017744;28;20018;-73
2022/10/11 11:17:25;;;;;;;10.00;3.13;;;18.50;99.90;;;;;;5017379;28;20057;-73
2022/10/11 11:20:02;;;;;;;9.50;3.42;;;18.30;99.90;;;;;;5032976;28;20502;-73
2022/10/11 11:22:50;;;;;;;9.48;3.22;;;18.30;99.90;;;;;;5017548;28;20030;-74
2022/10/11 11:25:37;;;;;;;10.23;3.38;;;18.20;99.90;;;;;;5017372;28;20021;-74
2022/10/11 11:28:23;;;;;;;11.35;3.35;;;18.20;99.90;;;;;;5019252;28;20026;-73
2022/10/11 11:31:10;;;;;;;13.95;4.30;;;18.20;99.90;;;;;;5034962;28;20141;-73
2022/10/11 11:33:59;;;;;;;9.10;3.28;;;18.20;99.90;;;;;;5033011;28;20032;-74
2022/10/11 11:36:45;;;;;;;12.73;4.13;;;17.80;99.90;;;;;;5017549;28;20025;-74
2022/10/11 11:39:21;;;;;;;7.78;3.75;;;17.90;99.90;;;;;;5015721;28;20026;-74
2022/10/11 11:41:57;;;;;;;11.77;3.67;;;17.70;99.90;;;;;;5015601;28;20021;-73
2022/10/11 11:44:30;;;;;;;14.55;4.20;;;17.60;99.90;;;;;;5017447;28;20472;-74
2022/10/11 11:47:05;;;;;;;10.82;3.97;;;17.70;99.90;;;;;;5015506;28;20058;-73
2022/10/11 11:49:46;;;;;;;16.92;5.25;;;17.80;99.90;;;;;;5016979;28;20038;-74
2022/10/11 11:52:19;;;;;;;10.38;4.47;;;17.60;99.90;;;;;;5017695;28;20053;-74
2022/10/11 11:54:55;;;;;;;10.23;3.63;;;17.70;99.90;;;;;;5018406;28;20517;-73
2022/10/11 11:57:34;;;;;;;10.88;3.45;;;17.80;99.90;;;;;;5024303;28;20211;-75
2022/10/11 12:00:03;;;;;;;9.25;3.25;;;17.70;99.90;;;;;;5021192;28;20025;-74
2022/10/11 12:03:05;;;;;;;16.08;4.45;;;17.70;99.90;;;;;;5036079;28;20433;-74
2022/10/11 12:05:34;;;;;;;13.43;4.20;;;17.70;99.90;;;;;;5013079;28;20018;-70
2022/10/11 12:08:07;;;;;;;11.55;5.88;;;17.60;99.90;;;;;;5018493;28;20116;-71
2022/10/11 12:10:54;;;;;;;15.18;4.35;;;17.50;99.90;;;;;;5012166;28;20029;-71
2022/10/11 12:13:24;;;;;;;11.43;3.78;;;17.40;99.90;;;;;;5016412;28;20484;-71
2022/10/11 12:16:11;;;;;;;12.55;4.63;;;17.50;99.90;;;;;;5036771;28;20031;-71
2022/10/11 12:18:56;;;;;;;9.23;4.10;;;17.50;99.90;;;;;;5036336;28;20017;-71
2022/10/11 12:21:35;;;;;;;13.68;4.20;;;17.60;99.90;;;;;;5052070;28;20029;-71
2022/10/11 12:24:22;;;;;;;10.50;3.90;;;17.50;99.90;;;;;;5036235;28;20040;-71
2022/10/11 12:26:55;;;;;;;10.77;3.88;;;17.60;99.90;;;;;;5037557;28;20079;-74
2022/10/11 12:29:25;;;;;;;11.90;4.32;;;17.60;99.90;;;;;;5038040;28;20116;-73
2022/10/11 12:31:57;;;;;;;12.77;4.10;;;17.70;99.90;;;;;;5050592;28;20049;-72
2022/10/11 12:34:39;;;;;;;12.27;3.90;;;17.60;99.90;;;;;;5037148;28;20025;-69
2022/10/11 12:37:30;;;;;;;11.60;3.85;;;17.50;99.90;;;;;;5036128;28;20018;-71
2022/10/11 12:39:59;;;;;;;11.38;3.80;;;17.40;99.90;;;;;;4974404;28;20039;-69
2022/10/11 12:42:34;;;;;;;11.45;4.30;;;17.40;99.90;;;;;;4974665;28;20411;-72
2022/10/11 12:45:12;;;;;;;12.88;4.10;;;17.40;99.90;;;;;;4975405;28;20496;-68
2022/10/11 12:48:08;;;;;;;8.95;4.00;;;17.60;99.90;;;;;;4974866;28;20158;-68
2022/10/11 12:50:58;;;;;;;9.00;3.72;;;17.50;99.90;;;;;;4974812;28;20404;-69
2022/10/11 12:53:33;;;;;;;9.52;4.70;;;17.40;99.90;;;;;;4975054;28;20066;-70
2022/10/11 12:56:10;;;;;;;10.15;4.28;;;17.20;99.90;;;;;;4975182;28;20022;-68
2022/10/11 12:58:40;;;;;;;13.20;3.95;;;17.20;99.90;;;;;;4974748;28;20499;-68
2022/10/11 13:01:07;;;;;;;14.18;3.88;;;17.40;99.90;;;;;;4966774;28;20063;-69